sensor_id;sensor_type;location;lat;lon;timestamp;temperature;humidity
70550;DHT22;58101;48.658;2.328;2024-01-06T00:02:24;6.70;99.90
70550;DHT22;58101;48.658;2.328;2024-01-06T00:04:49;6.60;99.90
70550;DHT22;58101;48.658;2.328;2024-01-06T00:07:15;6.60;99.90
70550;DHT22;58101;48.658;2.328;2024-01-06T00:09:41;6.60;99.90
70550;DHT22;58101;48.658;2.328;2024-01-06T00:12:06;6.50;99.90
70550;DHT22;58101;48.658;2.328;2024-01-06T00:14:32;6.50;99.90
70550;DHT22;58101;48.658;2.328;2024-01-06T00:16:58;6.40;99.90
70550;DHT22;58101;48.658;2.328;2024-01-06T00:19:23;6.40;99.90
70550;DHT22;58101;48.658;2.328;2024-01-06T00:21:49;6.30;99.90
70550;DHT22;58101;48.658;2.328;2024-01-06T00:24:14;6.30;99.90
70550;DHT22;58101;48.658;2.328;2024-01-06T00:26:40;6.20;99.90
70550;DHT22;58101;48.658;2.328;2024-01-06T00:29:06;6.20;99.90
70550;DHT22;58101;48.658;2.328;2024-01-06T00:31:31;6.10;99.90
70550;DHT22;58101;48.658;2.328;2024-01-06T00:33:57;6.10;99.90
70550;DHT22;58101;48.658;2.328;2024-01-06T00:36:23;6.10;99.90
70550;DHT22;58101;48.658;2.328;2024-01-06T00:38:48;6.00;99.90
70550;DHT22;58101;48.658;2.328;2024-01-06T00:41:14;5.90;99.90
70550;DHT22;58101;48.658;2.328;2024-01-06T00:43:40;5.90;99.90
70550;DHT22;58101;48.658;2.328;2024-01-06T00:46:06;5.90;99.90
70550;DHT22;58101;48.658;2.328;2024-01-06T00:48:31;5.80;99.90
70550;DHT22;58101;48.658;2.328;2024-01-06T00:50:57;5.80;99.90
70550;DHT22;58101;48.658;2.328;2024-01-06T00:53:22;5.70;99.90
70550;DHT22;58101;48.658;2.328;2024-01-06T00:55:48;5.70;99.90
70550;DHT22;58101;48.658;2.328;2024-01-06T00:58:14;5.60;99.90
70550;DHT22;58101;48.658;2.328;2024-01-06T01:00:39;5.80;99.90
70550;DHT22;58101;48.658;2.328;2024-01-06T01:03:05;5.60;99.90
70550;DHT22;58101;48.658;2.328;2024-01-06T01:05:31;5.60;99.90
70550;DHT22;58101;48.658;2.328;2024-01-06T01:07:56;5.50;99.90
70550;DHT22;58101;48.658;2.328;2024-01-06T01:10:22;5.50;99.90
70550;DHT22;58101;48.658;2.328;2024-01-06T01:12:47;5.50;99.90
70550;DHT22;58101;48.658;2.328;2024-01-06T01:15:13;5.40;99.90
70550;DHT22;58101;48.658;2.328;2024-01-06T01:17:38;5.40;99.90
70550;DHT22;58101;48.658;2.328;2024-01-06T01:20:05;5.40;99.90
70550;DHT22;58101;48.658;2.328;2024-01-06T01:22:30;5.30;99.90
70550;DHT22;58101;48.658;2.328;2024-01-06T01:24:56;5.30;99.90
70550;DHT22;58101;48.658;2.328;2024-01-06T01:27:21;5.30;99.90
70550;DHT22;58101;48.658;2.328;2024-01-06T01:29:47;5.30;99.90
70550;DHT22;58101;48.658;2.328;2024-01-06T01:32:13;5.20;99.90
70550;DHT22;58101;48.658;2.328;2024-01-06T01:34:39;5.20;99.90
70550;DHT22;58101;48.658;2.328;2024-01-06T01:37:04;5.20;99.90
70550;DHT22;58101;48.658;2.328;2024-01-06T01:39:30;5.20;99.90
70550;DHT22;58101;48.658;2.328;2024-01-06T01:41:56;5.20;99.90
70550;DHT22;58101;48.658;2.328;2024-01-06T01:44:21;5.10;99.90
70550;DHT22;58101;48.658;2.328;2024-01-06T01:46:47;5.10;99.90
70550;DHT22;58101;48.658;2.328;2024-01-06T01:49:13;5.20;99.90
70550;DHT22;58101;48.658;2.328;2024-01-06T01:51:39;5.10;99.90
70550;DHT22;58101;48.658;2.328;2024-01-06T01:54:06;5.10;99.90
70550;DHT22;58101;48.658;2.328;2024-01-06T01:56:32;5.00;99.90
70550;DHT22;58101;48.658;2.328;2024-01-06T01:59:10;5.00;99.90
70550;DHT22;58101;48.658;2.328;2024-01-06T02:01:36;5.00;99.90
70550;DHT22;58101;48.658;2.328;2024-01-06T02:04:02;5.00;99.90
70550;DHT22;58101;48.658;2.328;2024-01-06T02:06:28;4.90;99.90
70550;DHT22;58101;48.658;2.328;2024-01-06T02:08:54;4.90;99.90
70550;DHT22;58101;48.658;2.328;2024-01-06T02:11:19;4.80;99.90
70550;DHT22;58101;48.658;2.328;2024-01-06T02:13:45;4.90;99.90
70550;DHT22;58101;48.658;2.328;2024-01-06T02:16:11;4.80;99.90
70550;DHT22;58101;48.658;2.328;2024-01-06T02:18:36;4.70;99.90
70550;DHT22;58101;48.658;2.328;2024-01-06T02:21:02;4.70;99.90
70550;DHT22;58101;48.658;2.328;2024-01-06T02:23:28;4.60;99.90
70550;DHT22;58101;48.658;2.328;2024-01-06T02:25:54;4.60;99.90
70550;DHT22;58101;48.658;2.328;2024-01-06T02:28:20;4.60;99.90
70550;DHT22;58101;48.658;2.328;2024-01-06T02:30:46;4.60;99.90
70550;DHT22;58101;48.658;2.328;2024-01-06T02:33:12;4.60;99.90
70550;DHT22;58101;48.658;2.328;2024-01-06T02:35:37;4.50;99.90
70550;DHT22;58101;48.658;2.328;2024-01-06T02:38:05;4.50;99.90
70550;DHT22;58101;48.658;2.328;2024-01-06T02:40:31;4.50;99.90
70550;DHT22;58101;48.658;2.328;2024-01-06T02:42:58;4.50;99.90
70550;DHT22;58101;48.658;2.328;2024-01-06T02:45:23;4.40;99.90
70550;DHT22;58101;48.658;2.328;2024-01-06T02:47:49;4.40;99.90
70550;DHT22;58101;48.658;2.328;2024-01-06T02:50:14;4.40;99.90
70550;DHT22;58101;48.658;2.328;2024-01-06T02:52:40;4.40;99.90
70550;DHT22;58101;48.658;2.328;2024-01-06T02:55:06;4.40;99.90
70550;DHT22;58101;48.658;2.328;2024-01-06T02:57:32;4.40;99.90
70550;DHT22;58101;48.658;2.328;2024-01-06T02:59:57;4.50;99.90
70550;DHT22;58101;48.658;2.328;2024-01-06T03:02:23;4.50;99.90
70550;DHT22;58101;48.658;2.328;2024-01-06T03:04:49;4.50;99.90
70550;DHT22;58101;48.658;2.328;2024-01-06T03:07:14;4.50;99.90
70550;DHT22;58101;48.658;2.328;2024-01-06T03:09:40;4.60;99.90
70550;DHT22;58101;48.658;2.328;2024-01-06T03:12:06;4.70;99.90
70550;DHT22;58101;48.658;2.328;2024-01-06T03:14:36;4.70;99.90
70550;DHT22;58101;48.658;2.328;2024-01-06T03:17:01;4.70;99.90
70550;DHT22;58101;48.658;2.328;2024-01-06T03:19:28;4.70;99.90
70550;DHT22;58101;48.658;2.328;2024-01-06T03:21:54;4.80;99.90
70550;DHT22;58101;48.658;2.328;2024-01-06T03:24:21;4.90;99.90
70550;DHT22;58101;48.658;2.328;2024-01-06T03:26:46;5.00;99.90
70550;DHT22;58101;48.658;2.328;2024-01-06T03:29:12;5.00;99.90
70550;DHT22;58101;48.658;2.328;2024-01-06T03:31:38;5.10;99.90
70550;DHT22;58101;48.658;2.328;2024-01-06T03:34:06;5.10;99.90
70550;DHT22;58101;48.658;2.328;2024-01-06T03:36:33;5.20;99.90
70550;DHT22;58101;48.658;2.328;2024-01-06T03:38:59;5.20;99.90
70550;DHT22;58101;48.658;2.328;2024-01-06T03:41:25;5.30;99.90
70550;DHT22;58101;48.658;2.328;2024-01-06T03:43:50;5.30;99.90
70550;DHT22;58101;48.658;2.328;2024-01-06T03:46:16;5.40;99.90
70550;DHT22;58101;48.658;2.328;2024-01-06T03:48:41;5.40;99.90
70550;DHT22;58101;48.658;2.328;2024-01-06T03:51:07;5.40;99.90
70550;DHT22;58101;48.658;2.328;2024-01-06T03:53:33;5.40;99.90
70550;DHT22;58101;48.658;2.328;2024-01-06T03:55:58;5.40;99.90
70550;DHT22;58101;48.658;2.328;2024-01-06T03:58:24;5.40;99.90
70550;DHT22;58101;48.658;2.328;2024-01-06T04:00:49;5.40;99.90
70550;DHT22;58101;48.658;2.328;2024-01-06T04:03:15;5.50;99.90
70550;DHT22;58101;48.658;2.328;2024-01-06T04:05:41;5.70;99.90
70550;DHT22;58101;48.658;2.328;2024-01-06T04:08:06;5.60;99.90
70550;DHT22;58101;48.658;2.328;2024-01-06T04:10:32;5.60;99.90
70550;DHT22;58101;48.658;2.328;2024-01-06T04:12:57;5.60;99.90
70550;DHT22;58101;48.658;2.328;2024-01-06T04:15:23;5.70;99.90
70550;DHT22;58101;48.658;2.328;2024-01-06T04:17:49;5.70;99.90
70550;DHT22;58101;48.658;2.328;2024-01-06T04:20:15;5.70;99.90
70550;DHT22;58101;48.658;2.328;2024-01-06T04:22:40;5.70;99.90
70550;DHT22;58101;48.658;2.328;2024-01-06T04:25:06;5.70;99.90
70550;DHT22;58101;48.658;2.328;2024-01-06T04:27:32;5.80;99.90
70550;DHT22;58101;48.658;2.328;2024-01-06T04:29:59;5.80;99.90
70550;DHT22;58101;48.658;2.328;2024-01-06T04:32:25;5.80;99.90
70550;DHT22;58101;48.658;2.328;2024-01-06T04:34:50;5.80;99.90
70550;DHT22;58101;48.658;2.328;2024-01-06T04:37:16;5.80;99.90
70550;DHT22;58101;48.658;2.328;2024-01-06T04:39:41;5.90;99.90
70550;DHT22;58101;48.658;2.328;2024-01-06T04:42:07;5.90;99.90
70550;DHT22;58101;48.658;2.328;2024-01-06T04:44:33;5.90;99.90
70550;DHT22;58101;48.658;2.328;2024-01-06T04:46:58;5.90;99.90
70550;DHT22;58101;48.658;2.328;2024-01-06T04:49:24;5.90;99.90
70550;DHT22;58101;48.658;2.328;2024-01-06T04:51:50;5.90;99.90
70550;DHT22;58101;48.658;2.328;2024-01-06T04:54:15;5.90;99.90
70550;DHT22;58101;48.658;2.328;2024-01-06T04:56:41;6.00;99.90
70550;DHT22;58101;48.658;2.328;2024-01-06T04:59:06;6.00;99.90
70550;DHT22;58101;48.658;2.328;2024-01-06T05:01:32;6.00;99.90
70550;DHT22;58101;48.658;2.328;2024-01-06T05:03:58;6.00;99.90
70550;DHT22;58101;48.658;2.328;2024-01-06T05:06:24;6.00;99.90
70550;DHT22;58101;48.658;2.328;2024-01-06T05:08:50;6.00;99.90
70550;DHT22;58101;48.658;2.328;2024-01-06T05:11:16;6.00;99.90
70550;DHT22;58101;48.658;2.328;2024-01-06T05:13:41;6.00;99.90
70550;DHT22;58101;48.658;2.328;2024-01-06T05:16:08;6.00;99.90
70550;DHT22;58101;48.658;2.328;2024-01-06T05:18:34;6.00;99.90
70550;DHT22;58101;48.658;2.328;2024-01-06T05:21:00;6.00;99.90
70550;DHT22;58101;48.658;2.328;2024-01-06T05:23:26;6.00;99.90
70550;DHT22;58101;48.658;2.328;2024-01-06T05:25:52;6.00;99.90
70550;DHT22;58101;48.658;2.328;2024-01-06T05:28:18;5.90;99.90
70550;DHT22;58101;48.658;2.328;2024-01-06T05:30:43;6.00;99.90
70550;DHT22;58101;48.658;2.328;2024-01-06T05:33:10;6.00;99.90
70550;DHT22;58101;48.658;2.328;2024-01-06T05:35:36;6.00;99.90
70550;DHT22;58101;48.658;2.328;2024-01-06T05:38:01;6.10;99.90
70550;DHT22;58101;48.658;2.328;2024-01-06T05:40:27;6.20;99.90
70550;DHT22;58101;48.658;2.328;2024-01-06T05:42:52;6.10;99.90
70550;DHT22;58101;48.658;2.328;2024-01-06T05:45:21;6.00;99.90
70550;DHT22;58101;48.658;2.328;2024-01-06T05:47:47;6.10;99.90
70550;DHT22;58101;48.658;2.328;2024-01-06T05:50:15;6.10;99.90
70550;DHT22;58101;48.658;2.328;2024-01-06T05:52:41;6.10;99.90
70550;DHT22;58101;48.658;2.328;2024-01-06T05:55:07;6.10;99.90
70550;DHT22;58101;48.658;2.328;2024-01-06T05:57:32;6.10;99.90
70550;DHT22;58101;48.658;2.328;2024-01-06T05:59:59;6.10;99.90
70550;DHT22;58101;48.658;2.328;2024-01-06T06:02:24;6.10;99.90
70550;DHT22;58101;48.658;2.328;2024-01-06T06:04:51;6.10;99.90
70550;DHT22;58101;48.658;2.328;2024-01-06T06:07:16;6.20;99.90
70550;DHT22;58101;48.658;2.328;2024-01-06T06:09:42;6.10;99.90
70550;DHT22;58101;48.658;2.328;2024-01-06T06:12:08;6.10;99.90
70550;DHT22;58101;48.658;2.328;2024-01-06T06:14:33;6.10;99.90
70550;DHT22;58101;48.658;2.328;2024-01-06T06:16:59;6.10;99.90
70550;DHT22;58101;48.658;2.328;2024-01-06T06:19:24;6.10;99.90
70550;DHT22;58101;48.658;2.328;2024-01-06T06:21:51;6.00;99.90
70550;DHT22;58101;48.658;2.328;2024-01-06T06:24:17;6.00;99.90
70550;DHT22;58101;48.658;2.328;2024-01-06T06:26:43;6.00;99.90
70550;DHT22;58101;48.658;2.328;2024-01-06T06:29:09;6.00;99.90
70550;DHT22;58101;48.658;2.328;2024-01-06T06:31:34;5.90;99.90
70550;DHT22;58101;48.658;2.328;2024-01-06T06:34:00;5.80;99.90
70550;DHT22;58101;48.658;2.328;2024-01-06T06:36:25;5.80;99.90
70550;DHT22;58101;48.658;2.328;2024-01-06T06:38:51;5.80;99.90
70550;DHT22;58101;48.658;2.328;2024-01-06T06:41:16;5.80;99.90
70550;DHT22;58101;48.658;2.328;2024-01-06T06:43:42;5.80;99.90
70550;DHT22;58101;48.658;2.328;2024-01-06T06:46:08;5.80;99.90
70550;DHT22;58101;48.658;2.328;2024-01-06T06:48:33;5.80;99.90
70550;DHT22;58101;48.658;2.328;2024-01-06T06:51:01;5.70;99.90
70550;DHT22;58101;48.658;2.328;2024-01-06T06:53:27;5.70;99.90
70550;DHT22;58101;48.658;2.328;2024-01-06T06:55:53;5.60;99.90
70550;DHT22;58101;48.658;2.328;2024-01-06T06:58:19;5.50;99.90
70550;DHT22;58101;48.658;2.328;2024-01-06T07:00:44;5.50;99.90
70550;DHT22;58101;48.658;2.328;2024-01-06T07:03:10;5.40;99.90
70550;DHT22;58101;48.658;2.328;2024-01-06T07:05:35;5.40;99.90
70550;DHT22;58101;48.658;2.328;2024-01-06T07:08:01;5.30;99.90
70550;DHT22;58101;48.658;2.328;2024-01-06T07:10:27;5.30;99.90
70550;DHT22;58101;48.658;2.328;2024-01-06T07:12:53;5.30;99.90
70550;DHT22;58101;48.658;2.328;2024-01-06T07:15:18;5.30;99.90
70550;DHT22;58101;48.658;2.328;2024-01-06T07:17:44;5.40;99.90
70550;DHT22;58101;48.658;2.328;2024-01-06T07:20:10;5.40;99.90
70550;DHT22;58101;48.658;2.328;2024-01-06T07:22:36;5.50;99.90
70550;DHT22;58101;48.658;2.328;2024-01-06T07:25:02;5.50;99.90
70550;DHT22;58101;48.658;2.328;2024-01-06T07:27:28;5.50;99.90
70550;DHT22;58101;48.658;2.328;2024-01-06T07:29:53;5.60;99.90
70550;DHT22;58101;48.658;2.328;2024-01-06T07:32:22;5.60;99.90
70550;DHT22;58101;48.658;2.328;2024-01-06T07:34:47;5.60;99.90
70550;DHT22;58101;48.658;2.328;2024-01-06T07:37:13;5.70;99.90
70550;DHT22;58101;48.658;2.328;2024-01-06T07:39:38;5.70;99.90
70550;DHT22;58101;48.658;2.328;2024-01-06T07:42:04;5.70;99.90
70550;DHT22;58101;48.658;2.328;2024-01-06T07:44:30;5.70;99.90
70550;DHT22;58101;48.658;2.328;2024-01-06T07:46:55;5.80;99.90
70550;DHT22;58101;48.658;2.328;2024-01-06T07:49:21;5.80;99.90
70550;DHT22;58101;48.658;2.328;2024-01-06T07:51:46;5.80;99.90
70550;DHT22;58101;48.658;2.328;2024-01-06T07:54:12;5.80;99.90
70550;DHT22;58101;48.658;2.328;2024-01-06T07:56:38;5.80;99.90
70550;DHT22;58101;48.658;2.328;2024-01-06T07:59:04;5.90;99.90
70550;DHT22;58101;48.658;2.328;2024-01-06T08:01:30;5.90;99.90
70550;DHT22;58101;48.658;2.328;2024-01-06T08:03:57;5.90;99.90
70550;DHT22;58101;48.658;2.328;2024-01-06T08:06:22;5.90;99.90
70550;DHT22;58101;48.658;2.328;2024-01-06T08:08:48;6.00;99.90
70550;DHT22;58101;48.658;2.328;2024-01-06T08:11:13;6.00;99.90
70550;DHT22;58101;48.658;2.328;2024-01-06T08:13:39;6.00;99.90
70550;DHT22;58101;48.658;2.328;2024-01-06T08:16:05;6.10;99.90
70550;DHT22;58101;48.658;2.328;2024-01-06T08:18:31;6.10;99.90
70550;DHT22;58101;48.658;2.328;2024-01-06T08:20:56;6.10;99.90
70550;DHT22;58101;48.658;2.328;2024-01-06T08:23:22;6.20;99.90
70550;DHT22;58101;48.658;2.328;2024-01-06T08:25:48;6.20;99.90
70550;DHT22;58101;48.658;2.328;2024-01-06T08:28:14;6.30;99.90
70550;DHT22;58101;48.658;2.328;2024-01-06T08:30:44;6.20;99.90
70550;DHT22;58101;48.658;2.328;2024-01-06T08:33:09;6.30;99.90
70550;DHT22;58101;48.658;2.328;2024-01-06T08:35:35;6.30;99.90
70550;DHT22;58101;48.658;2.328;2024-01-06T08:38:06;6.30;99.90
70550;DHT22;58101;48.658;2.328;2024-01-06T08:40:32;6.30;99.90
70550;DHT22;58101;48.658;2.328;2024-01-06T08:42:57;6.30;99.90
70550;DHT22;58101;48.658;2.328;2024-01-06T08:45:23;6.30;99.90
70550;DHT22;58101;48.658;2.328;2024-01-06T08:47:48;6.30;99.90
70550;DHT22;58101;48.658;2.328;2024-01-06T08:50:14;6.40;99.90
70550;DHT22;58101;48.658;2.328;2024-01-06T08:52:39;6.30;99.90
70550;DHT22;58101;48.658;2.328;2024-01-06T08:55:05;6.40;99.90
70550;DHT22;58101;48.658;2.328;2024-01-06T08:57:31;6.40;99.90
70550;DHT22;58101;48.658;2.328;2024-01-06T08:59:57;6.30;99.90
70550;DHT22;58101;48.658;2.328;2024-01-06T09:02:22;6.50;99.90
70550;DHT22;58101;48.658;2.328;2024-01-06T09:04:48;6.50;99.90
70550;DHT22;58101;48.658;2.328;2024-01-06T09:07:14;6.50;99.90
70550;DHT22;58101;48.658;2.328;2024-01-06T09:09:39;6.50;99.90
70550;DHT22;58101;48.658;2.328;2024-01-06T09:12:05;6.60;99.90
70550;DHT22;58101;48.658;2.328;2024-01-06T09:14:31;6.60;99.90
70550;DHT22;58101;48.658;2.328;2024-01-06T09:16:56;6.60;99.90
70550;DHT22;58101;48.658;2.328;2024-01-06T09:19:22;6.60;99.90
70550;DHT22;58101;48.658;2.328;2024-01-06T09:21:47;6.60;99.90
70550;DHT22;58101;48.658;2.328;2024-01-06T09:24:13;6.70;99.90
70550;DHT22;58101;48.658;2.328;2024-01-06T09:26:39;6.70;99.90
70550;DHT22;58101;48.658;2.328;2024-01-06T09:29:04;6.80;99.90
70550;DHT22;58101;48.658;2.328;2024-01-06T09:31:31;6.80;99.90
70550;DHT22;58101;48.658;2.328;2024-01-06T09:34:00;6.90;99.90
70550;DHT22;58101;48.658;2.328;2024-01-06T09:36:27;7.00;99.90
70550;DHT22;58101;48.658;2.328;2024-01-06T09:38:53;7.10;99.90
70550;DHT22;58101;48.658;2.328;2024-01-06T09:41:18;7.30;99.90
70550;DHT22;58101;48.658;2.328;2024-01-06T09:43:44;7.40;99.90
70550;DHT22;58101;48.658;2.328;2024-01-06T09:48:47;7.80;99.90
70550;DHT22;58101;48.658;2.328;2024-01-06T09:51:16;7.90;99.90
70550;DHT22;58101;48.658;2.328;2024-01-06T09:54:03;7.90;99.90
70550;DHT22;58101;48.658;2.328;2024-01-06T09:56:32;7.90;99.90
70550;DHT22;58101;48.658;2.328;2024-01-06T09:58:58;7.90;99.90
70550;DHT22;58101;48.658;2.328;2024-01-06T10:01:23;7.90;99.90
70550;DHT22;58101;48.658;2.328;2024-01-06T10:03:49;7.90;99.90
70550;DHT22;58101;48.658;2.328;2024-01-06T10:06:15;7.90;99.90
70550;DHT22;58101;48.658;2.328;2024-01-06T10:08:47;7.90;99.90
70550;DHT22;58101;48.658;2.328;2024-01-06T10:11:13;8.00;99.90
70550;DHT22;58101;48.658;2.328;2024-01-06T10:13:39;8.00;99.90
70550;DHT22;58101;48.658;2.328;2024-01-06T10:16:06;8.10;99.90
70550;DHT22;58101;48.658;2.328;2024-01-06T10:18:32;8.00;99.90
70550;DHT22;58101;48.658;2.328;2024-01-06T10:20:58;8.10;99.90
70550;DHT22;58101;48.658;2.328;2024-01-06T10:23:25;8.00;99.90
70550;DHT22;58101;48.658;2.328;2024-01-06T10:25:54;8.00;99.90
70550;DHT22;58101;48.658;2.328;2024-01-06T10:28:21;8.00;99.90
70550;DHT22;58101;48.658;2.328;2024-01-06T10:30:49;8.00;99.90
70550;DHT22;58101;48.658;2.328;2024-01-06T10:33:16;8.00;99.90
70550;DHT22;58101;48.658;2.328;2024-01-06T10:35:42;8.10;99.90
70550;DHT22;58101;48.658;2.328;2024-01-06T10:38:08;8.10;99.90
70550;DHT22;58101;48.658;2.328;2024-01-06T10:40:33;8.10;99.90
70550;DHT22;58101;48.658;2.328;2024-01-06T10:43:00;8.30;99.90
70550;DHT22;58101;48.658;2.328;2024-01-06T10:45:28;8.40;99.90
70550;DHT22;58101;48.658;2.328;2024-01-06T10:47:55;8.60;99.90
70550;DHT22;58101;48.658;2.328;2024-01-06T10:50:21;8.70;99.90
70550;DHT22;58101;48.658;2.328;2024-01-06T10:52:48;9.00;99.90
70550;DHT22;58101;48.658;2.328;2024-01-06T10:55:15;9.10;99.90
70550;DHT22;58101;48.658;2.328;2024-01-06T10:57:46;9.60;99.90
70550;DHT22;58101;48.658;2.328;2024-01-06T11:00:12;10.00;99.90
70550;DHT22;58101;48.658;2.328;2024-01-06T11:02:39;10.60;99.90
70550;DHT22;58101;48.658;2.328;2024-01-06T11:05:05;10.90;99.90
70550;DHT22;58101;48.658;2.328;2024-01-06T11:07:35;10.90;99.90
70550;DHT22;58101;48.658;2.328;2024-01-06T11:10:15;10.90;99.90
70550;DHT22;58101;48.658;2.328;2024-01-06T11:12:44;10.80;99.90
70550;DHT22;58101;48.658;2.328;2024-01-06T11:15:44;10.70;99.90
70550;DHT22;58101;48.658;2.328;2024-01-06T11:18:30;10.60;99.90
70550;DHT22;58101;48.658;2.328;2024-01-06T11:26:39;10.50;99.90
70550;DHT22;58101;48.658;2.328;2024-01-06T11:29:05;10.50;99.90
70550;DHT22;58101;48.658;2.328;2024-01-06T11:31:33;11.40;99.90
70550;DHT22;58101;48.658;2.328;2024-01-06T11:34:15;13.00;98.40
70550;DHT22;58101;48.658;2.328;2024-01-06T11:36:45;14.40;85.60
70550;DHT22;58101;48.658;2.328;2024-01-06T11:39:36;14.90;74.40
70550;DHT22;58101;48.658;2.328;2024-01-06T11:42:04;14.70;67.80
70550;DHT22;58101;48.658;2.328;2024-01-06T11:44:34;14.50;67.30
70550;DHT22;58101;48.658;2.328;2024-01-06T11:46:59;14.10;66.80
70550;DHT22;58101;48.658;2.328;2024-01-06T11:49:28;13.80;67.70
70550;DHT22;58101;48.658;2.328;2024-01-06T11:51:54;13.20;65.20
70550;DHT22;58101;48.658;2.328;2024-01-06T11:54:21;12.70;66.80
70550;DHT22;58101;48.658;2.328;2024-01-06T11:56:47;12.00;68.90
70550;DHT22;58101;48.658;2.328;2024-01-06T11:59:13;11.60;73.00
70550;DHT22;58101;48.658;2.328;2024-01-06T12:01:39;11.90;80.90
70550;DHT22;58101;48.658;2.328;2024-01-06T12:04:05;13.10;76.70
70550;DHT22;58101;48.658;2.328;2024-01-06T12:06:34;14.50;68.70
70550;DHT22;58101;48.658;2.328;2024-01-06T12:09:07;16.10;62.60
70550;DHT22;58101;48.658;2.328;2024-01-06T12:11:33;17.70;55.10
70550;DHT22;58101;48.658;2.328;2024-01-06T12:13:59;19.00;51.40
70550;DHT22;58101;48.658;2.328;2024-01-06T12:16:24;20.20;47.20
70550;DHT22;58101;48.658;2.328;2024-01-06T12:18:54;20.40;42.50
70550;DHT22;58101;48.658;2.328;2024-01-06T12:21:25;19.50;42.50
70550;DHT22;58101;48.658;2.328;2024-01-06T12:23:50;18.90;42.70
70550;DHT22;58101;48.658;2.328;2024-01-06T12:26:17;18.70;45.90
70550;DHT22;58101;48.658;2.328;2024-01-06T12:28:46;18.30;45.00
70550;DHT22;58101;48.658;2.328;2024-01-06T12:31:12;17.60;45.70
70550;DHT22;58101;48.658;2.328;2024-01-06T12:33:42;17.10;47.10
70550;DHT22;58101;48.658;2.328;2024-01-06T12:36:08;16.60;46.40
70550;DHT22;58101;48.658;2.328;2024-01-06T12:38:42;15.90;48.20
70550;DHT22;58101;48.658;2.328;2024-01-06T12:41:07;15.10;50.20
70550;DHT22;58101;48.658;2.328;2024-01-06T12:43:33;14.50;52.70
70550;DHT22;58101;48.658;2.328;2024-01-06T12:45:59;14.20;53.60
70550;DHT22;58101;48.658;2.328;2024-01-06T12:48:25;14.00;54.90
70550;DHT22;58101;48.658;2.328;2024-01-06T12:50:51;13.90;54.70
70550;DHT22;58101;48.658;2.328;2024-01-06T12:53:16;13.80;55.40
70550;DHT22;58101;48.658;2.328;2024-01-06T12:55:43;13.60;56.60
70550;DHT22;58101;48.658;2.328;2024-01-06T12:58:09;13.50;57.40
70550;DHT22;58101;48.658;2.328;2024-01-06T13:00:35;13.40;57.20
70550;DHT22;58101;48.658;2.328;2024-01-06T13:03:00;13.20;58.20
70550;DHT22;58101;48.658;2.328;2024-01-06T13:05:26;12.80;58.70
70550;DHT22;58101;48.658;2.328;2024-01-06T13:07:52;12.20;60.20
70550;DHT22;58101;48.658;2.328;2024-01-06T13:10:17;11.60;61.90
70550;DHT22;58101;48.658;2.328;2024-01-06T13:12:44;11.10;64.80
70550;DHT22;58101;48.658;2.328;2024-01-06T13:15:09;10.80;71.90
70550;DHT22;58101;48.658;2.328;2024-01-06T13:17:39;10.50;75.80
70550;DHT22;58101;48.658;2.328;2024-01-06T13:20:05;10.30;82.80
70550;DHT22;58101;48.658;2.328;2024-01-06T13:22:31;10.20;86.80
70550;DHT22;58101;48.658;2.328;2024-01-06T13:24:57;10.00;90.10
70550;DHT22;58101;48.658;2.328;2024-01-06T13:27:24;10.00;91.00
70550;DHT22;58101;48.658;2.328;2024-01-06T13:29:50;9.90;91.80
70550;DHT22;58101;48.658;2.328;2024-01-06T13:32:17;10.00;92.20
70550;DHT22;58101;48.658;2.328;2024-01-06T13:34:44;9.80;94.30
70550;DHT22;58101;48.658;2.328;2024-01-06T13:37:10;9.70;92.50
70550;DHT22;58101;48.658;2.328;2024-01-06T13:39:36;9.60;94.10
70550;DHT22;58101;48.658;2.328;2024-01-06T13:42:02;9.60;95.50
70550;DHT22;58101;48.658;2.328;2024-01-06T13:44:29;9.70;94.80
70550;DHT22;58101;48.658;2.328;2024-01-06T13:46:54;9.70;95.10
70550;DHT22;58101;48.658;2.328;2024-01-06T13:49:21;9.70;95.80
70550;DHT22;58101;48.658;2.328;2024-01-06T13:51:47;9.70;95.40
70550;DHT22;58101;48.658;2.328;2024-01-06T13:54:13;9.70;95.10
70550;DHT22;58101;48.658;2.328;2024-01-06T13:56:38;9.70;95.30
70550;DHT22;58101;48.658;2.328;2024-01-06T13:59:04;9.60;95.40
70550;DHT22;58101;48.658;2.328;2024-01-06T14:01:30;9.50;95.90
70550;DHT22;58101;48.658;2.328;2024-01-06T14:03:56;9.40;96.70
70550;DHT22;58101;48.658;2.328;2024-01-06T14:06:25;9.30;97.10
70550;DHT22;58101;48.658;2.328;2024-01-06T14:08:55;9.30;98.50
70550;DHT22;58101;48.658;2.328;2024-01-06T14:11:21;9.30;97.80
70550;DHT22;58101;48.658;2.328;2024-01-06T14:13:46;9.30;99.40
70550;DHT22;58101;48.658;2.328;2024-01-06T14:16:15;9.30;99.20
70550;DHT22;58101;48.658;2.328;2024-01-06T14:18:41;9.30;99.60
70550;DHT22;58101;48.658;2.328;2024-01-06T14:21:10;9.30;98.70
70550;DHT22;58101;48.658;2.328;2024-01-06T14:23:36;9.40;98.50
70550;DHT22;58101;48.658;2.328;2024-01-06T14:26:02;9.30;98.60
70550;DHT22;58101;48.658;2.328;2024-01-06T14:28:28;9.20;97.90
70550;DHT22;58101;48.658;2.328;2024-01-06T14:30:54;9.20;98.80
70550;DHT22;58101;48.658;2.328;2024-01-06T14:33:19;9.10;98.70
70550;DHT22;58101;48.658;2.328;2024-01-06T14:35:45;9.00;98.50
70550;DHT22;58101;48.658;2.328;2024-01-06T14:38:12;8.90;99.50
70550;DHT22;58101;48.658;2.328;2024-01-06T14:40:38;8.90;99.90
70550;DHT22;58101;48.658;2.328;2024-01-06T14:43:04;8.80;99.90
70550;DHT22;58101;48.658;2.328;2024-01-06T14:45:32;8.80;99.90
70550;DHT22;58101;48.658;2.328;2024-01-06T14:47:58;8.80;99.90
70550;DHT22;58101;48.658;2.328;2024-01-06T14:50:25;8.80;99.90
70550;DHT22;58101;48.658;2.328;2024-01-06T14:52:51;8.70;99.90
70550;DHT22;58101;48.658;2.328;2024-01-06T14:55:17;8.70;99.90
70550;DHT22;58101;48.658;2.328;2024-01-06T14:57:43;8.70;99.90
70550;DHT22;58101;48.658;2.328;2024-01-06T15:00:10;8.70;99.90
70550;DHT22;58101;48.658;2.328;2024-01-06T15:02:39;8.70;99.90
70550;DHT22;58101;48.658;2.328;2024-01-06T15:05:11;8.70;99.90
70550;DHT22;58101;48.658;2.328;2024-01-06T15:07:37;8.70;99.90
70550;DHT22;58101;48.658;2.328;2024-01-06T15:10:03;8.60;99.90
70550;DHT22;58101;48.658;2.328;2024-01-06T15:12:29;8.60;99.90
70550;DHT22;58101;48.658;2.328;2024-01-06T15:14:54;8.60;99.90
70550;DHT22;58101;48.658;2.328;2024-01-06T15:17:20;8.50;99.90
70550;DHT22;58101;48.658;2.328;2024-01-06T15:19:46;8.50;99.90
70550;DHT22;58101;48.658;2.328;2024-01-06T15:22:12;8.50;99.90
70550;DHT22;58101;48.658;2.328;2024-01-06T15:24:39;8.60;99.90
70550;DHT22;58101;48.658;2.328;2024-01-06T15:27:05;8.30;99.90
70550;DHT22;58101;48.658;2.328;2024-01-06T15:29:31;8.30;99.90
70550;DHT22;58101;48.658;2.328;2024-01-06T15:31:57;8.40;99.90
70550;DHT22;58101;48.658;2.328;2024-01-06T15:34:25;8.40;99.90
70550;DHT22;58101;48.658;2.328;2024-01-06T15:36:51;8.40;99.90
70550;DHT22;58101;48.658;2.328;2024-01-06T15:39:17;8.40;99.90
70550;DHT22;58101;48.658;2.328;2024-01-06T15:41:43;8.30;99.90
70550;DHT22;58101;48.658;2.328;2024-01-06T15:44:09;8.30;99.90
70550;DHT22;58101;48.658;2.328;2024-01-06T15:46:35;8.30;99.90
70550;DHT22;58101;48.658;2.328;2024-01-06T15:49:02;8.30;99.90